sensor_id;sensor_type;location;lat;lon;timestamp;temperature;humidity
25342;DHT22;13298;48.792;9.154;2023-06-14T00:01:35;14.40;77.90
25342;DHT22;13298;48.792;9.154;2023-06-14T00:04:03;14.40;77.60
25342;DHT22;13298;48.792;9.154;2023-06-14T00:06:34;14.40;78.30
25342;DHT22;13298;48.792;9.154;2023-06-14T00:09:00;14.40;79.70
25342;DHT22;13298;48.792;9.154;2023-06-14T00:11:25;14.40;79.40
25342;DHT22;13298;48.792;9.154;2023-06-14T00:13:52;14.40;78.40
25342;DHT22;13298;48.792;9.154;2023-06-14T00:16:18;14.40;78.30
25342;DHT22;13298;48.792;9.154;2023-06-14T00:18:45;14.30;79.10
25342;DHT22;13298;48.792;9.154;2023-06-14T00:21:11;14.30;80.10
25342;DHT22;13298;48.792;9.154;2023-06-14T00:23:37;14.20;80.60
25342;DHT22;13298;48.792;9.154;2023-06-14T00:26:03;14.20;80.30
25342;DHT22;13298;48.792;9.154;2023-06-14T00:28:29;14.20;80.00
25342;DHT22;13298;48.792;9.154;2023-06-14T00:30:55;14.20;81.00
25342;DHT22;13298;48.792;9.154;2023-06-14T00:33:20;14.20;81.50
25342;DHT22;13298;48.792;9.154;2023-06-14T00:35:46;14.10;80.70
25342;DHT22;13298;48.792;9.154;2023-06-14T00:38:12;14.10;80.40
25342;DHT22;13298;48.792;9.154;2023-06-14T00:40:38;14.10;80.70
25342;DHT22;13298;48.792;9.154;2023-06-14T00:43:04;14.10;80.40
25342;DHT22;13298;48.792;9.154;2023-06-14T00:45:30;14.00;80.00
25342;DHT22;13298;48.792;9.154;2023-06-14T00:47:57;14.00;80.60
25342;DHT22;13298;48.792;9.154;2023-06-14T00:50:23;14.00;80.70
25342;DHT22;13298;48.792;9.154;2023-06-14T00:52:49;13.90;81.50
25342;DHT22;13298;48.792;9.154;2023-06-14T00:55:16;13.90;82.40
25342;DHT22;13298;48.792;9.154;2023-06-14T00:57:41;13.80;82.50
25342;DHT22;13298;48.792;9.154;2023-06-14T01:00:08;13.80;82.50
25342;DHT22;13298;48.792;9.154;2023-06-14T01:02:38;13.70;82.50
25342;DHT22;13298;48.792;9.154;2023-06-14T01:05:05;13.70;83.10
25342;DHT22;13298;48.792;9.154;2023-06-14T01:10:35;13.60;83.00
25342;DHT22;13298;48.792;9.154;2023-06-14T01:15:46;13.60;84.00
25342;DHT22;13298;48.792;9.154;2023-06-14T01:18:13;13.60;84.50
25342;DHT22;13298;48.792;9.154;2023-06-14T01:20:46;13.50;84.50
25342;DHT22;13298;48.792;9.154;2023-06-14T01:23:20;13.50;84.30
25342;DHT22;13298;48.792;9.154;2023-06-14T01:25:46;13.40;84.60
25342;DHT22;13298;48.792;9.154;2023-06-14T01:28:14;13.40;84.50
25342;DHT22;13298;48.792;9.154;2023-06-14T01:30:43;13.40;84.90
25342;DHT22;13298;48.792;9.154;2023-06-14T01:33:12;13.30;85.40
25342;DHT22;13298;48.792;9.154;2023-06-14T01:35:41;13.30;85.30
25342;DHT22;13298;48.792;9.154;2023-06-14T01:38:08;13.30;85.40
25342;DHT22;13298;48.792;9.154;2023-06-14T01:40:35;13.20;86.20
25342;DHT22;13298;48.792;9.154;2023-06-14T01:43:02;13.20;86.00
25342;DHT22;13298;48.792;9.154;2023-06-14T01:45:29;13.20;86.20
25342;DHT22;13298;48.792;9.154;2023-06-14T01:47:55;13.20;86.30
25342;DHT22;13298;48.792;9.154;2023-06-14T01:50:21;13.10;85.60
25342;DHT22;13298;48.792;9.154;2023-06-14T01:52:47;13.10;84.50
25342;DHT22;13298;48.792;9.154;2023-06-14T01:55:12;13.10;84.10
25342;DHT22;13298;48.792;9.154;2023-06-14T01:57:38;13.10;85.60
25342;DHT22;13298;48.792;9.154;2023-06-14T02:00:05;13.00;86.90
25342;DHT22;13298;48.792;9.154;2023-06-14T02:02:38;13.00;86.70
25342;DHT22;13298;48.792;9.154;2023-06-14T02:05:04;13.00;87.20
25342;DHT22;13298;48.792;9.154;2023-06-14T02:07:30;12.90;86.90
25342;DHT22;13298;48.792;9.154;2023-06-14T02:09:56;12.90;87.70
25342;DHT22;13298;48.792;9.154;2023-06-14T02:12:21;12.90;87.60
25342;DHT22;13298;48.792;9.154;2023-06-14T02:14:47;12.90;88.90
25342;DHT22;13298;48.792;9.154;2023-06-14T02:17:14;12.90;88.90
25342;DHT22;13298;48.792;9.154;2023-06-14T02:19:40;12.90;88.00
25342;DHT22;13298;48.792;9.154;2023-06-14T02:22:06;12.90;88.60
25342;DHT22;13298;48.792;9.154;2023-06-14T02:24:32;12.90;89.20
25342;DHT22;13298;48.792;9.154;2023-06-14T02:26:57;12.80;89.60
25342;DHT22;13298;48.792;9.154;2023-06-14T02:29:23;12.80;89.80
25342;DHT22;13298;48.792;9.154;2023-06-14T02:31:49;12.80;90.00
25342;DHT22;13298;48.792;9.154;2023-06-14T02:34:15;12.70;90.10
25342;DHT22;13298;48.792;9.154;2023-06-14T02:36:43;12.70;90.20
25342;DHT22;13298;48.792;9.154;2023-06-14T02:39:09;12.60;90.50
25342;DHT22;13298;48.792;9.154;2023-06-14T02:41:35;12.60;90.00
25342;DHT22;13298;48.792;9.154;2023-06-14T02:44:01;12.60;90.30
25342;DHT22;13298;48.792;9.154;2023-06-14T02:46:27;12.50;90.30
25342;DHT22;13298;48.792;9.154;2023-06-14T02:48:52;12.50;90.80
25342;DHT22;13298;48.792;9.154;2023-06-14T02:51:18;12.40;90.70
25342;DHT22;13298;48.792;9.154;2023-06-14T02:53:44;12.40;90.70
25342;DHT22;13298;48.792;9.154;2023-06-14T02:56:10;12.40;91.00
25342;DHT22;13298;48.792;9.154;2023-06-14T02:58:37;12.40;90.90
25342;DHT22;13298;48.792;9.154;2023-06-14T03:01:05;12.40;91.00
25342;DHT22;13298;48.792;9.154;2023-06-14T03:03:33;12.30;91.00
25342;DHT22;13298;48.792;9.154;2023-06-14T03:05:59;12.30;91.10
25342;DHT22;13298;48.792;9.154;2023-06-14T03:08:29;12.30;91.30
25342;DHT22;13298;48.792;9.154;2023-06-14T03:10:56;12.20;91.60
25342;DHT22;13298;48.792;9.154;2023-06-14T03:13:22;12.20;91.70
25342;DHT22;13298;48.792;9.154;2023-06-14T03:15:49;12.20;91.70
25342;DHT22;13298;48.792;9.154;2023-06-14T03:18:17;12.20;91.70
25342;DHT22;13298;48.792;9.154;2023-06-14T03:20:43;12.10;91.90
25342;DHT22;13298;48.792;9.154;2023-06-14T03:23:10;12.10;91.80
25342;DHT22;13298;48.792;9.154;2023-06-14T03:25:37;12.10;92.20
25342;DHT22;13298;48.792;9.154;2023-06-14T03:28:04;12.00;92.00
25342;DHT22;13298;48.792;9.154;2023-06-14T03:30:31;12.00;92.40
25342;DHT22;13298;48.792;9.154;2023-06-14T03:32:57;12.00;92.50
25342;DHT22;13298;48.792;9.154;2023-06-14T03:35:23;12.00;92.60
25342;DHT22;13298;48.792;9.154;2023-06-14T03:37:49;12.00;92.70
25342;DHT22;13298;48.792;9.154;2023-06-14T03:40:17;12.00;92.60
25342;DHT22;13298;48.792;9.154;2023-06-14T03:42:44;12.00;92.70
25342;DHT22;13298;48.792;9.154;2023-06-14T03:45:10;12.10;92.30
25342;DHT22;13298;48.792;9.154;2023-06-14T03:47:36;12.10;92.30
25342;DHT22;13298;48.792;9.154;2023-06-14T03:50:03;12.10;92.60
25342;DHT22;13298;48.792;9.154;2023-06-14T03:52:29;12.10;92.90
25342;DHT22;13298;48.792;9.154;2023-06-14T03:54:55;12.10;93.00
25342;DHT22;13298;48.792;9.154;2023-06-14T03:57:22;12.10;92.90
25342;DHT22;13298;48.792;9.154;2023-06-14T03:59:48;12.20;92.80
25342;DHT22;13298;48.792;9.154;2023-06-14T04:02:15;12.10;92.60
25342;DHT22;13298;48.792;9.154;2023-06-14T04:04:42;12.20;92.70
25342;DHT22;13298;48.792;9.154;2023-06-14T04:07:11;12.20;92.70
25342;DHT22;13298;48.792;9.154;2023-06-14T04:09:38;12.30;92.80
25342;DHT22;13298;48.792;9.154;2023-06-14T04:12:05;12.30;93.20
25342;DHT22;13298;48.792;9.154;2023-06-14T04:14:31;12.40;92.90
25342;DHT22;13298;48.792;9.154;2023-06-14T04:16:58;12.50;92.60
25342;DHT22;13298;48.792;9.154;2023-06-14T04:19:24;12.60;92.00
25342;DHT22;13298;48.792;9.154;2023-06-14T04:21:50;12.60;92.00
25342;DHT22;13298;48.792;9.154;2023-06-14T04:24:16;12.80;92.10
25342;DHT22;13298;48.792;9.154;2023-06-14T04:26:45;12.90;91.80
25342;DHT22;13298;48.792;9.154;2023-06-14T04:29:13;12.90;91.50
25342;DHT22;13298;48.792;9.154;2023-06-14T04:31:41;13.00;91.60
25342;DHT22;13298;48.792;9.154;2023-06-14T04:34:07;13.10;91.70
25342;DHT22;13298;48.792;9.154;2023-06-14T04:36:34;13.20;91.50
25342;DHT22;13298;48.792;9.154;2023-06-14T04:39:03;13.30;91.20
25342;DHT22;13298;48.792;9.154;2023-06-14T04:41:29;13.40;91.00
25342;DHT22;13298;48.792;9.154;2023-06-14T04:43:56;13.50;91.00
25342;DHT22;13298;48.792;9.154;2023-06-14T04:46:24;13.60;90.90
25342;DHT22;13298;48.792;9.154;2023-06-14T04:48:49;13.60;90.80
25342;DHT22;13298;48.792;9.154;2023-06-14T04:51:16;13.70;90.90
25342;DHT22;13298;48.792;9.154;2023-06-14T04:53:42;13.90;90.90
25342;DHT22;13298;48.792;9.154;2023-06-14T04:56:09;13.90;90.20
25342;DHT22;13298;48.792;9.154;2023-06-14T04:58:35;14.00;90.20
25342;DHT22;13298;48.792;9.154;2023-06-14T05:01:00;14.00;90.40
25342;DHT22;13298;48.792;9.154;2023-06-14T05:03:27;14.10;91.20
25342;DHT22;13298;48.792;9.154;2023-06-14T05:05:54;14.10;91.40
25342;DHT22;13298;48.792;9.154;2023-06-14T05:08:21;14.10;91.30
25342;DHT22;13298;48.792;9.154;2023-06-14T05:10:49;14.10;91.20
25342;DHT22;13298;48.792;9.154;2023-06-14T05:13:15;14.10;91.20
25342;DHT22;13298;48.792;9.154;2023-06-14T05:15:40;14.10;91.10
25342;DHT22;13298;48.792;9.154;2023-06-14T05:18:06;14.20;90.80
25342;DHT22;13298;48.792;9.154;2023-06-14T05:20:33;14.30;90.40
25342;DHT22;13298;48.792;9.154;2023-06-14T05:23:00;14.30;90.30
25342;DHT22;13298;48.792;9.154;2023-06-14T05:25:26;14.40;90.20
25342;DHT22;13298;48.792;9.154;2023-06-14T05:27:53;14.50;90.30
25342;DHT22;13298;48.792;9.154;2023-06-14T05:30:19;14.70;90.20
25342;DHT22;13298;48.792;9.154;2023-06-14T05:32:45;15.10;89.40
25342;DHT22;13298;48.792;9.154;2023-06-14T05:35:10;15.40;88.30
25342;DHT22;13298;48.792;9.154;2023-06-14T05:37:36;15.60;88.30
25342;DHT22;13298;48.792;9.154;2023-06-14T05:40:03;15.70;88.40
25342;DHT22;13298;48.792;9.154;2023-06-14T05:42:31;15.80;87.70
25342;DHT22;13298;48.792;9.154;2023-06-14T05:44:57;15.80;87.50
25342;DHT22;13298;48.792;9.154;2023-06-14T05:47:23;15.90;87.20
25342;DHT22;13298;48.792;9.154;2023-06-14T05:49:49;15.90;86.60
25342;DHT22;13298;48.792;9.154;2023-06-14T05:52:14;16.00;86.60
25342;DHT22;13298;48.792;9.154;2023-06-14T05:54:40;16.10;87.00
25342;DHT22;13298;48.792;9.154;2023-06-14T05:57:06;16.10;86.50
25342;DHT22;13298;48.792;9.154;2023-06-14T05:59:32;16.30;86.30
25342;DHT22;13298;48.792;9.154;2023-06-14T06:01:58;16.40;86.40
25342;DHT22;13298;48.792;9.154;2023-06-14T06:04:24;16.50;86.10
25342;DHT22;13298;48.792;9.154;2023-06-14T06:06:49;16.70;85.80
25342;DHT22;13298;48.792;9.154;2023-06-14T06:09:15;16.80;84.80
25342;DHT22;13298;48.792;9.154;2023-06-14T06:11:41;17.00;84.60
25342;DHT22;13298;48.792;9.154;2023-06-14T06:14:06;17.10;83.10
25342;DHT22;13298;48.792;9.154;2023-06-14T06:16:32;17.30;83.90
25342;DHT22;13298;48.792;9.154;2023-06-14T06:18:58;17.40;83.60
25342;DHT22;13298;48.792;9.154;2023-06-14T06:21:24;17.50;81.40
25342;DHT22;13298;48.792;9.154;2023-06-14T06:23:50;17.70;81.80
25342;DHT22;13298;48.792;9.154;2023-06-14T06:26:16;17.80;81.70
25342;DHT22;13298;48.792;9.154;2023-06-14T06:28:42;17.90;82.00
25342;DHT22;13298;48.792;9.154;2023-06-14T06:31:07;18.00;79.90
25342;DHT22;13298;48.792;9.154;2023-06-14T06:33:33;18.10;80.50
25342;DHT22;13298;48.792;9.154;2023-06-14T06:35:59;18.20;80.60
25342;DHT22;13298;48.792;9.154;2023-06-14T06:38:24;18.30;79.50
25342;DHT22;13298;48.792;9.154;2023-06-14T06:40:50;18.40;80.40
25342;DHT22;13298;48.792;9.154;2023-06-14T06:43:16;18.50;80.40
25342;DHT22;13298;48.792;9.154;2023-06-14T06:45:43;18.60;77.70
25342;DHT22;13298;48.792;9.154;2023-06-14T06:48:09;18.70;77.00
25342;DHT22;13298;48.792;9.154;2023-06-14T06:50:37;18.80;77.00
25342;DHT22;13298;48.792;9.154;2023-06-14T06:53:03;19.00;77.30
25342;DHT22;13298;48.792;9.154;2023-06-14T06:55:30;19.10;74.70
25342;DHT22;13298;48.792;9.154;2023-06-14T06:57:56;19.20;74.40
25342;DHT22;13298;48.792;9.154;2023-06-14T07:00:21;19.30;74.10
25342;DHT22;13298;48.792;9.154;2023-06-14T07:02:47;19.40;73.30
25342;DHT22;13298;48.792;9.154;2023-06-14T07:05:13;19.50;75.20
25342;DHT22;13298;48.792;9.154;2023-06-14T07:07:39;19.60;76.10
25342;DHT22;13298;48.792;9.154;2023-06-14T07:10:05;19.70;73.60
25342;DHT22;13298;48.792;9.154;2023-06-14T07:12:31;19.70;71.30
25342;DHT22;13298;48.792;9.154;2023-06-14T07:14:59;19.70;70.60
25342;DHT22;13298;48.792;9.154;2023-06-14T07:17:25;19.80;71.90
25342;DHT22;13298;48.792;9.154;2023-06-14T07:19:51;19.80;71.00
25342;DHT22;13298;48.792;9.154;2023-06-14T07:22:19;19.80;72.30
25342;DHT22;13298;48.792;9.154;2023-06-14T07:24:45;19.90;73.60
25342;DHT22;13298;48.792;9.154;2023-06-14T07:27:11;20.00;73.90
25342;DHT22;13298;48.792;9.154;2023-06-14T07:29:38;20.20;73.50
25342;DHT22;13298;48.792;9.154;2023-06-14T07:32:04;20.20;72.10
25342;DHT22;13298;48.792;9.154;2023-06-14T07:34:31;20.20;71.20
25342;DHT22;13298;48.792;9.154;2023-06-14T07:36:56;20.30;70.10
25342;DHT22;13298;48.792;9.154;2023-06-14T07:39:22;20.30;69.40
25342;DHT22;13298;48.792;9.154;2023-06-14T07:41:48;20.40;69.40
25342;DHT22;13298;48.792;9.154;2023-06-14T07:44:14;20.40;69.00
25342;DHT22;13298;48.792;9.154;2023-06-14T07:46:41;20.40;68.70
25342;DHT22;13298;48.792;9.154;2023-06-14T07:49:06;20.50;68.80
25342;DHT22;13298;48.792;9.154;2023-06-14T07:51:32;20.40;68.40
25342;DHT22;13298;48.792;9.154;2023-06-14T07:53:59;20.40;69.30
25342;DHT22;13298;48.792;9.154;2023-06-14T07:56:28;20.40;68.60
25342;DHT22;13298;48.792;9.154;2023-06-14T07:58:54;20.50;68.80
25342;DHT22;13298;48.792;9.154;2023-06-14T08:01:20;20.50;68.30
25342;DHT22;13298;48.792;9.154;2023-06-14T08:03:45;20.60;68.30
25342;DHT22;13298;48.792;9.154;2023-06-14T08:06:11;20.60;67.80
25342;DHT22;13298;48.792;9.154;2023-06-14T08:08:37;20.60;68.20
25342;DHT22;13298;48.792;9.154;2023-06-14T08:11:03;20.70;68.90
25342;DHT22;13298;48.792;9.154;2023-06-14T08:13:28;20.70;69.50
25342;DHT22;13298;48.792;9.154;2023-06-14T08:15:54;20.70;68.40
25342;DHT22;13298;48.792;9.154;2023-06-14T08:18:22;20.60;67.70
25342;DHT22;13298;48.792;9.154;2023-06-14T08:20:48;20.50;68.70
25342;DHT22;13298;48.792;9.154;2023-06-14T08:23:14;20.50;70.30
25342;DHT22;13298;48.792;9.154;2023-06-14T08:25:41;20.60;71.10
25342;DHT22;13298;48.792;9.154;2023-06-14T08:28:06;20.70;70.50
25342;DHT22;13298;48.792;9.154;2023-06-14T08:30:32;20.80;69.80
25342;DHT22;13298;48.792;9.154;2023-06-14T08:32:58;20.80;72.60
25342;DHT22;13298;48.792;9.154;2023-06-14T08:35:24;21.00;71.60
25342;DHT22;13298;48.792;9.154;2023-06-14T08:37:49;21.20;71.80
25342;DHT22;13298;48.792;9.154;2023-06-14T08:40:22;21.30;69.80
25342;DHT22;13298;48.792;9.154;2023-06-14T08:42:53;21.40;68.60
25342;DHT22;13298;48.792;9.154;2023-06-14T08:45:24;21.40;68.30
25342;DHT22;13298;48.792;9.154;2023-06-14T08:47:50;21.40;68.70
25342;DHT22;13298;48.792;9.154;2023-06-14T08:50:24;21.40;69.60
25342;DHT22;13298;48.792;9.154;2023-06-14T08:52:54;21.50;68.70
25342;DHT22;13298;48.792;9.154;2023-06-14T08:55:23;21.60;69.40
25342;DHT22;13298;48.792;9.154;2023-06-14T08:57:53;21.70;68.50
25342;DHT22;13298;48.792;9.154;2023-06-14T09:00:20;21.80;68.00
25342;DHT22;13298;48.792;9.154;2023-06-14T09:02:47;21.90;67.10
25342;DHT22;13298;48.792;9.154;2023-06-14T09:05:13;21.90;68.20
25342;DHT22;13298;48.792;9.154;2023-06-14T09:07:40;22.00;67.50
25342;DHT22;13298;48.792;9.154;2023-06-14T09:10:12;22.10;65.90
25342;DHT22;13298;48.792;9.154;2023-06-14T09:12:39;22.00;66.30
25342;DHT22;13298;48.792;9.154;2023-06-14T09:15:05;22.00;64.80
25342;DHT22;13298;48.792;9.154;2023-06-14T09:17:37;21.80;65.20
25342;DHT22;13298;48.792;9.154;2023-06-14T09:20:05;21.80;66.10
25342;DHT22;13298;48.792;9.154;2023-06-14T09:22:34;21.70;65.60
25342;DHT22;13298;48.792;9.154;2023-06-14T09:25:00;21.80;67.10
25342;DHT22;13298;48.792;9.154;2023-06-14T09:27:26;21.80;67.40
25342;DHT22;13298;48.792;9.154;2023-06-14T09:29:52;21.90;66.00
25342;DHT22;13298;48.792;9.154;2023-06-14T09:32:18;22.00;65.60
25342;DHT22;13298;48.792;9.154;2023-06-14T09:34:45;22.00;66.80
25342;DHT22;13298;48.792;9.154;2023-06-14T09:37:11;22.10;65.90
25342;DHT22;13298;48.792;9.154;2023-06-14T09:39:52;22.30;67.00
25342;DHT22;13298;48.792;9.154;2023-06-14T09:42:18;22.40;66.40
25342;DHT22;13298;48.792;9.154;2023-06-14T09:44:47;22.50;65.80
25342;DHT22;13298;48.792;9.154;2023-06-14T09:47:15;22.60;66.20
25342;DHT22;13298;48.792;9.154;2023-06-14T09:49:42;22.80;63.70
25342;DHT22;13298;48.792;9.154;2023-06-14T09:52:15;22.80;62.90
25342;DHT22;13298;48.792;9.154;2023-06-14T09:54:43;22.90;62.60
25342;DHT22;13298;48.792;9.154;2023-06-14T09:57:12;23.00;64.70
25342;DHT22;13298;48.792;9.154;2023-06-14T09:59:46;23.20;63.40
25342;DHT22;13298;48.792;9.154;2023-06-14T10:02:45;23.30;62.40
25342;DHT22;13298;48.792;9.154;2023-06-14T10:05:17;23.50;61.10
25342;DHT22;13298;48.792;9.154;2023-06-14T10:07:55;23.50;61.60
25342;DHT22;13298;48.792;9.154;2023-06-14T10:10:24;23.50;61.50
25342;DHT22;13298;48.792;9.154;2023-06-14T10:12:50;23.60;57.40
25342;DHT22;13298;48.792;9.154;2023-06-14T10:15:25;23.80;57.90
25342;DHT22;13298;48.792;9.154;2023-06-14T10:18:01;24.00;58.70
25342;DHT22;13298;48.792;9.154;2023-06-14T10:20:37;24.10;57.80
25342;DHT22;13298;48.792;9.154;2023-06-14T10:23:19;24.30;56.30
25342;DHT22;13298;48.792;9.154;2023-06-14T10:25:50;24.40;55.20
25342;DHT22;13298;48.792;9.154;2023-06-14T10:28:21;24.50;53.30
25342;DHT22;13298;48.792;9.154;2023-06-14T10:31:08;24.60;55.50
25342;DHT22;13298;48.792;9.154;2023-06-14T10:33:38;24.60;56.30
25342;DHT22;13298;48.792;9.154;2023-06-14T10:36:30;24.70;56.30
25342;DHT22;13298;48.792;9.154;2023-06-14T10:41:30;24.80;55.80
25342;DHT22;13298;48.792;9.154;2023-06-14T10:46:47;24.70;55.30
25342;DHT22;13298;48.792;9.154;2023-06-14T10:49:20;24.90;54.20
25342;DHT22;13298;48.792;9.154;2023-06-14T10:52:12;25.10;55.60
25342;DHT22;13298;48.792;9.154;2023-06-14T10:55:08;25.30;54.80
25342;DHT22;13298;48.792;9.154;2023-06-14T10:57:37;25.60;52.60
25342;DHT22;13298;48.792;9.154;2023-06-14T11:00:11;25.60;53.00
25342;DHT22;13298;48.792;9.154;2023-06-14T11:08:40;25.60;54.80
25342;DHT22;13298;48.792;9.154;2023-06-14T11:11:21;25.50;54.50
25342;DHT22;13298;48.792;9.154;2023-06-14T11:13:48;25.00;54.70
25342;DHT22;13298;48.792;9.154;2023-06-14T11:16:15;24.80;55.20
25342;DHT22;13298;48.792;9.154;2023-06-14T11:18:44;24.40;55.70
25342;DHT22;13298;48.792;9.154;2023-06-14T11:21:11;24.30;54.50
25342;DHT22;13298;48.792;9.154;2023-06-14T11:23:36;24.40;54.10
25342;DHT22;13298;48.792;9.154;2023-06-14T11:26:03;24.50;53.50
25342;DHT22;13298;48.792;9.154;2023-06-14T11:28:39;24.80;52.70
25342;DHT22;13298;48.792;9.154;2023-06-14T11:31:06;25.00;51.40
25342;DHT22;13298;48.792;9.154;2023-06-14T11:33:33;25.20;52.20
25342;DHT22;13298;48.792;9.154;2023-06-14T11:36:02;25.30;51.10
25342;DHT22;13298;48.792;9.154;2023-06-14T11:38:29;25.30;53.00
25342;DHT22;13298;48.792;9.154;2023-06-14T11:40:59;25.40;52.40
25342;DHT22;13298;48.792;9.154;2023-06-14T11:43:25;25.50;51.60
25342;DHT22;13298;48.792;9.154;2023-06-14T11:45:52;25.60;51.60
25342;DHT22;13298;48.792;9.154;2023-06-14T11:48:18;25.70;51.30
25342;DHT22;13298;48.792;9.154;2023-06-14T11:50:44;25.70;50.90
25342;DHT22;13298;48.792;9.154;2023-06-14T11:53:10;25.70;50.80
25342;DHT22;13298;48.792;9.154;2023-06-14T11:55:39;25.40;50.50
25342;DHT22;13298;48.792;9.154;2023-06-14T11:58:06;25.20;52.60
25342;DHT22;13298;48.792;9.154;2023-06-14T12:00:32;25.20;52.80
25342;DHT22;13298;48.792;9.154;2023-06-14T12:02:58;25.00;52.40
25342;DHT22;13298;48.792;9.154;2023-06-14T12:05:25;25.00;53.20
25342;DHT22;13298;48.792;9.154;2023-06-14T12:07:58;25.00;51.10
25342;DHT22;13298;48.792;9.154;2023-06-14T12:10:25;24.90;52.20
25342;DHT22;13298;48.792;9.154;2023-06-14T12:12:57;24.70;52.30
25342;DHT22;13298;48.792;9.154;2023-06-14T12:15:28;24.60;50.40
25342;DHT22;13298;48.792;9.154;2023-06-14T12:17:58;24.50;52.60
25342;DHT22;13298;48.792;9.154;2023-06-14T12:20:29;24.50;51.40
25342;DHT22;13298;48.792;9.154;2023-06-14T12:22:57;24.40;51.50
25342;DHT22;13298;48.792;9.154;2023-06-14T12:25:31;24.50;55.00
25342;DHT22;13298;48.792;9.154;2023-06-14T12:28:00;24.60;53.60
25342;DHT22;13298;48.792;9.154;2023-06-14T12:30:30;24.90;53.30
25342;DHT22;13298;48.792;9.154;2023-06-14T12:32:56;25.00;53.60
25342;DHT22;13298;48.792;9.154;2023-06-14T12:35:21;24.90;53.00
25342;DHT22;13298;48.792;9.154;2023-06-14T12:37:47;24.70;52.90
25342;DHT22;13298;48.792;9.154;2023-06-14T12:40:13;24.40;53.90
25342;DHT22;13298;48.792;9.154;2023-06-14T12:42:40;24.30;52.00
25342;DHT22;13298;48.792;9.154;2023-06-14T12:45:07;24.40;52.60
25342;DHT22;13298;48.792;9.154;2023-06-14T12:47:32;24.40;53.60
25342;DHT22;13298;48.792;9.154;2023-06-14T12:49:58;24.50;52.60
25342;DHT22;13298;48.792;9.154;2023-06-14T12:52:24;24.50;52.10
25342;DHT22;13298;48.792;9.154;2023-06-14T12:54:50;24.50;52.20
25342;DHT22;13298;48.792;9.154;2023-06-14T12:57:15;24.60;53.90
25342;DHT22;13298;48.792;9.154;2023-06-14T12:59:41;24.80;54.50
25342;DHT22;13298;48.792;9.154;2023-06-14T13:02:15;24.90;52.40
25342;DHT22;13298;48.792;9.154;2023-06-14T13:04:42;25.10;52.40
25342;DHT22;13298;48.792;9.154;2023-06-14T13:07:08;25.40;52.50
25342;DHT22;13298;48.792;9.154;2023-06-14T13:09:36;25.60;51.50
25342;DHT22;13298;48.792;9.154;2023-06-14T13:12:02;25.60;50.80
25342;DHT22;13298;48.792;9.154;2023-06-14T13:14:28;25.50;49.20
25342;DHT22;13298;48.792;9.154;2023-06-14T13:16:54;25.10;50.40
25342;DHT22;13298;48.792;9.154;2023-06-14T13:19:20;24.70;51.00
25342;DHT22;13298;48.792;9.154;2023-06-14T13:21:46;24.30;53.00
25342;DHT22;13298;48.792;9.154;2023-06-14T13:24:12;24.30;54.00
25342;DHT22;13298;48.792;9.154;2023-06-14T13:26:38;24.30;53.20
25342;DHT22;13298;48.792;9.154;2023-06-14T13:29:04;24.40;52.50
25342;DHT22;13298;48.792;9.154;2023-06-14T13:31:29;24.60;53.10
25342;DHT22;13298;48.792;9.154;2023-06-14T13:33:55;24.70;52.30
25342;DHT22;13298;48.792;9.154;2023-06-14T13:36:21;24.80;54.10
25342;DHT22;13298;48.792;9.154;2023-06-14T13:38:47;25.00;52.40
25342;DHT22;13298;48.792;9.154;2023-06-14T13:41:13;25.20;50.70
25342;DHT22;13298;48.792;9.154;2023-06-14T13:43:38;25.40;52.00
25342;DHT22;13298;48.792;9.154;2023-06-14T13:46:04;25.70;53.00
25342;DHT22;13298;48.792;9.154;2023-06-14T13:48:30;25.80;52.90
25342;DHT22;13298;48.792;9.154;2023-06-14T13:50:56;25.90;51.20
25342;DHT22;13298;48.792;9.154;2023-06-14T13:53:22;26.00;50.90
25342;DHT22;13298;48.792;9.154;2023-06-14T13:55:48;26.20;53.00
25342;DHT22;13298;48.792;9.154;2023-06-14T13:58:13;26.40;50.10
25342;DHT22;13298;48.792;9.154;2023-06-14T14:00:40;26.70;48.90
25342;DHT22;13298;48.792;9.154;2023-06-14T14:03:06;26.90;49.20
25342;DHT22;13298;48.792;9.154;2023-06-14T14:05:32;27.10;48.90
25342;DHT22;13298;48.792;9.154;2023-06-14T14:07:58;27.20;48.40
25342;DHT22;13298;48.792;9.154;2023-06-14T14:10:25;27.20;47.60
25342;DHT22;13298;48.792;9.154;2023-06-14T14:12:51;27.00;47.80
25342;DHT22;13298;48.792;9.154;2023-06-14T14:15:18;26.90;46.90
25342;DHT22;13298;48.792;9.154;2023-06-14T14:17:43;26.60;47.20
25342;DHT22;13298;48.792;9.154;2023-06-14T14:20:10;26.30;48.30
25342;DHT22;13298;48.792;9.154;2023-06-14T14:22:37;26.00;48.70
25342;DHT22;13298;48.792;9.154;2023-06-14T14:25:03;25.80;50.30
25342;DHT22;13298;48.792;9.154;2023-06-14T14:27:30;25.60;51.30
25342;DHT22;13298;48.792;9.154;2023-06-14T14:29:55;25.50;52.00
25342;DHT22;13298;48.792;9.154;2023-06-14T14:32:21;25.30;51.70
25342;DHT22;13298;48.792;9.154;2023-06-14T14:34:47;25.20;51.90
25342;DHT22;13298;48.792;9.154;2023-06-14T14:37:12;25.20;52.40
25342;DHT22;13298;48.792;9.154;2023-06-14T14:39:40;25.30;53.00
25342;DHT22;13298;48.792;9.154;2023-06-14T14:42:06;25.50;52.10
25342;DHT22;13298;48.792;9.154;2023-06-14T14:44:33;25.80;52.30
25342;DHT22;13298;48.792;9.154;2023-06-14T14:46:58;26.10;50.90
25342;DHT22;13298;48.792;9.154;2023-06-14T14:49:24;26.40;50.30
25342;DHT22;13298;48.792;9.154;2023-06-14T14:51:50;26.40;51.00
25342;DHT22;13298;48.792;9.154;2023-06-14T14:54:15;26.20;50.90
25342;DHT22;13298;48.792;9.154;2023-06-14T14:56:41;26.00;50.70
25342;DHT22;13298;48.792;9.154;2023-06-14T14:59:07;25.70;50.90
25342;DHT22;13298;48.792;9.154;2023-06-14T15:01:32;25.60;51.80
25342;DHT22;13298;48.792;9.154;2023-06-14T15:03:58;25.40;52.40
25342;DHT22;13298;48.792;9.154;2023-06-14T15:06:24;25.20;52.60
25342;DHT22;13298;48.792;9.154;2023-06-14T15:08:49;25.30;52.60
25342;DHT22;13298;48.792;9.154;2023-06-14T15:11:16;25.60;51.10
25342;DHT22;13298;48.792;9.154;2023-06-14T15:13:41;26.00;50.30
25342;DHT22;13298;48.792;9.154;2023-06-14T15:16:07;26.20;52.10
25342;DHT22;13298;48.792;9.154;2023-06-14T15:18:33;26.00;51.20
25342;DHT22;13298;48.792;9.154;2023-06-14T15:20:59;25.70;50.70
25342;DHT22;13298;48.792;9.154;2023-06-14T15:23:24;25.70;52.60
25342;DHT22;13298;48.792;9.154;2023-06-14T15:25:50;25.80;51.50
25342;DHT22;13298;48.792;9.154;2023-06-14T15:28:17;25.60;50.70
25342;DHT22;13298;48.792;9.154;2023-06-14T15:30:43;25.30;51.40
25342;DHT22;13298;48.792;9.154;2023-06-14T15:33:08;25.00;52.20
25342;DHT22;13298;48.792;9.154;2023-06-14T15:35:34;25.30;52.80
25342;DHT22;13298;48.792;9.154;2023-06-14T15:38:00;25.60;52.00
25342;DHT22;13298;48.792;9.154;2023-06-14T15:40:26;25.80;50.10
25342;DHT22;13298;48.792;9.154;2023-06-14T15:42:53;25.70;51.00
25342;DHT22;13298;48.792;9.154;2023-06-14T15:45:19;25.50;52.50
25342;DHT22;13298;48.792;9.154;2023-06-14T15:47:44;25.30;51.80